createdAt,value
2023-01-15T00:04:45.904Z,63.93
2023-01-15T00:09:51.647Z,63.74
2023-01-15T00:14:55.061Z,63.49
2023-01-15T00:19:58.541Z,63.64
2023-01-15T00:25:20.805Z,63.65
2023-01-15T00:30:25.201Z,64.14
2023-01-15T00:35:28.593Z,63.89
2023-01-15T00:40:33.635Z,63.76
2023-01-15T00:45:36.630Z,63.84
2023-01-15T00:50:39.938Z,63.57
2023-01-15T00:55:45.525Z,63.87
2023-01-15T01:00:48.867Z,63.99
2023-01-15T01:05:52.623Z,63.60
2023-01-15T01:11:05.347Z,63.43
2023-01-15T01:16:23.813Z,63.67
2023-01-15T01:21:28.008Z,64.07
2023-01-15T01:26:33.097Z,63.30
2023-01-15T01:31:36.634Z,63.26
2023-01-15T01:36:41.962Z,63.86
2023-01-15T01:41:48.079Z,63.93
2023-01-15T01:46:51.539Z,64.04
2023-01-15T01:52:00.984Z,63.68
2023-01-15T01:57:07.427Z,63.88
2023-01-15T02:02:11.103Z,63.76
2023-01-15T02:07:14.723Z,64.08
2023-01-15T02:12:27.222Z,63.69
2023-01-15T02:17:37.291Z,63.81
2023-01-15T02:22:56.113Z,63.71
2023-01-15T02:28:05.695Z,63.57
2023-01-15T02:33:15.151Z,64.04
2023-01-15T02:38:21.802Z,63.68
2023-01-15T02:43:29.210Z,63.36
2023-01-15T02:48:36.062Z,63.58
2023-01-15T02:53:41.370Z,63.59
2023-01-15T02:58:46.779Z,63.79
2023-01-15T03:03:57.086Z,63.60
2023-01-15T03:09:01.191Z,63.41
2023-01-15T03:14:12.105Z,63.86
2023-01-15T03:19:25.643Z,64.06
2023-01-15T03:24:34.407Z,63.82
2023-01-15T03:29:43.673Z,64.71
2023-01-15T03:34:51.332Z,64.68
2023-01-15T03:39:56.301Z,64.70
2023-01-15T03:45:05.584Z,65.19
2023-01-15T03:50:18.836Z,64.82
2023-01-15T03:55:26.787Z,64.78
2023-01-15T04:00:37.486Z,65.19
2023-01-15T04:05:41.649Z,65.85
2023-01-15T04:10:54.039Z,66.33
2023-01-15T04:15:59.188Z,65.96
2023-01-15T04:21:04.774Z,66.04
2023-01-15T04:26:09.085Z,66.05
2023-01-15T04:31:13.983Z,65.80
2023-01-15T04:36:17.143Z,67.60
2023-01-15T04:41:37.979Z,66.78
2023-01-15T04:46:45.682Z,67.07
2023-01-15T04:51:49.135Z,67.61
2023-01-15T04:56:54.464Z,67.06
2023-01-15T05:02:05.005Z,67.24
2023-01-15T05:07:09.518Z,67.26
2023-01-15T05:12:12.847Z,67.75
2023-01-15T05:17:17.611Z,67.75
2023-01-15T05:22:20.900Z,67.52
2023-01-15T05:27:24.324Z,67.46
2023-01-15T05:32:29.219Z,67.72
2023-01-15T05:37:32.459Z,68.59
2023-01-15T05:42:36.062Z,67.98
2023-01-15T05:47:40.981Z,67.36
2023-01-15T05:52:44.023Z,67.52
2023-01-15T05:57:47.627Z,66.78
2023-01-15T06:02:52.535Z,67.38
2023-01-15T06:07:56.037Z,66.94
2023-01-15T06:12:59.475Z,66.71
2023-01-15T06:18:04.245Z,67.19
2023-01-15T06:23:08.019Z,67.31
2023-01-15T06:28:12.217Z,67.21
2023-01-15T06:33:17.071Z,67.23
2023-01-15T06:38:20.504Z,66.60
2023-01-15T06:43:41.345Z,66.77
2023-01-15T06:48:47.709Z,67.19
2023-01-15T06:53:51.041Z,66.54
2023-01-15T06:58:56.331Z,67.23
2023-01-15T07:04:01.246Z,66.74
2023-01-15T07:09:04.694Z,66.71
2023-01-15T07:14:08.112Z,66.67
2023-01-15T07:19:13.416Z,66.61
2023-01-15T07:24:17.370Z,66.91
2023-01-15T07:29:21.649Z,66.26
2023-01-15T07:34:26.590Z,66.30
2023-01-15T07:39:31.848Z,66.58
2023-01-15T07:44:52.715Z,66.15
2023-01-15T07:49:57.785Z,66.35
2023-01-15T07:55:01.445Z,65.86
2023-01-15T08:00:05.880Z,65.57
2023-01-15T08:05:12.698Z,65.21
2023-01-15T08:10:16.496Z,65.38
2023-01-15T08:15:19.970Z,64.82
2023-01-15T08:20:27.713Z,64.47
2023-01-15T08:25:31.140Z,65.08
2023-01-15T08:30:34.462Z,65.33
2023-01-15T08:35:39.200Z,65.26
2023-01-15T08:40:56.415Z,64.60
2023-01-15T08:46:01.240Z,64.83
2023-01-15T08:51:08.107Z,65.09
2023-01-15T08:56:14.805Z,64.21
2023-01-15T09:01:18.231Z,64.33
2023-01-15T09:06:22.967Z,64.58
2023-01-15T09:11:26.507Z,64.52
2023-01-15T09:16:32.411Z,64.58
2023-01-15T09:21:37.336Z,64.76
2023-01-15T09:26:41.323Z,64.25
2023-01-15T09:31:44.720Z,64.15
2023-01-15T09:36:50.986Z,64.52
2023-01-15T09:42:10.682Z,64.04
2023-01-15T09:47:19.699Z,64.05
2023-01-15T09:52:39.105Z,63.65
2023-01-15T09:57:43.908Z,63.95
2023-01-15T10:02:51.691Z,64.14
2023-01-15T10:08:03.021Z,63.60
2023-01-15T10:13:13.957Z,63.94
2023-01-15T10:18:20.810Z,63.40
2023-01-15T10:23:43.462Z,63.37
2023-01-15T10:29:01.411Z,63.28
2023-01-15T10:34:44.234Z,63.03
2023-01-15T10:40:00.519Z,63.55
2023-01-15T10:45:12.504Z,63.20
2023-01-15T10:50:19.404Z,63.02
2023-01-15T10:55:30.021Z,63.09
2023-01-15T11:00:33.877Z,63.47
2023-01-15T11:05:37.680Z,63.10
2023-01-15T11:10:43.150Z,62.98
2023-01-15T11:16:05.363Z,63.05
2023-01-15T11:21:14.277Z,63.09
2023-01-15T11:26:25.579Z,63.09
2023-01-15T11:31:38.391Z,62.71
2023-01-15T11:36:41.957Z,63.23
2023-01-15T11:42:07.309Z,62.77
2023-01-15T11:47:29.924Z,62.57
2023-01-15T11:52:33.555Z,63.08
2023-01-15T11:57:39.424Z,62.61
2023-01-15T12:02:45.284Z,62.41
2023-01-15T12:07:51.161Z,61.87
2023-01-15T12:13:11.919Z,62.60
2023-01-15T12:18:44.327Z,61.99
2023-01-15T12:24:15.998Z,61.83
2023-01-15T12:29:26.115Z,62.24
2023-01-15T12:34:35.681Z,62.50
2023-01-15T12:39:48.287Z,62.11
2023-01-15T12:45:08.066Z,62.12
2023-01-15T12:50:28.507Z,61.22
2023-01-15T12:55:36.881Z,61.34
2023-01-15T13:00:45.368Z,61.00
2023-01-15T13:05:53.116Z,61.68
2023-01-15T13:10:56.792Z,61.44
2023-01-15T13:16:11.218Z,61.62
2023-01-15T13:21:16.933Z,61.65
2023-01-15T13:26:38.439Z,61.43
2023-01-15T13:32:06.431Z,61.88
2023-01-15T13:37:20.387Z,61.83
2023-01-15T13:42:34.641Z,61.49
2023-01-15T13:47:43.533Z,61.80
2023-01-15T13:52:47.838Z,61.94
2023-01-15T13:57:51.319Z,61.97
2023-01-15T14:02:57.871Z,61.95
2023-01-15T14:08:03.233Z,61.35
2023-01-15T14:13:23.760Z,61.28
2023-01-15T14:19:02.271Z,61.24
2023-01-15T14:24:24.274Z,61.46
2023-01-15T14:29:53.775Z,61.92
2023-01-15T14:35:00.560Z,61.04
2023-01-15T14:40:06.783Z,61.63
2023-01-15T14:45:20.945Z,62.14
2023-01-15T14:50:31.439Z,61.59
2023-01-15T14:55:39.769Z,61.77
2023-01-15T15:00:47.665Z,61.67
2023-01-15T15:05:53.558Z,61.35
2023-01-15T15:10:59.488Z,61.82
2023-01-15T15:16:08.956Z,61.79
2023-01-15T15:21:19.737Z,61.63
2023-01-15T15:26:26.790Z,61.58
2023-01-15T15:31:36.255Z,62.09
2023-01-15T15:36:42.179Z,61.57
2023-01-15T15:42:06.417Z,62.19
2023-01-15T15:47:38.360Z,61.79
2023-01-15T15:52:46.249Z,61.96
2023-01-15T15:57:53.490Z,62.49
2023-01-15T16:02:56.992Z,62.30
2023-01-15T16:08:19.213Z,62.36
2023-01-15T16:13:29.944Z,61.59
2023-01-15T16:18:41.021Z,61.81
2023-01-15T16:23:57.562Z,61.38
2023-01-15T16:29:03.887Z,61.98
2023-01-15T16:34:07.734Z,61.79
2023-01-15T16:39:23.508Z,61.31
2023-01-15T16:44:34.258Z,61.22
2023-01-15T16:49:37.725Z,61.48
2023-01-15T17:00:31.095Z,60.63
2023-01-15T17:05:34.759Z,60.91
2023-01-15T17:10:39.925Z,60.54
2023-01-15T17:15:43.480Z,60.98
2023-01-15T17:20:47.510Z,61.01
2023-01-15T17:25:52.967Z,61.62
2023-01-15T17:31:01.139Z,61.11
2023-01-15T17:36:04.903Z,61.12
2023-01-15T17:41:11.556Z,61.18
2023-01-15T17:46:15.174Z,60.91
2023-01-15T17:51:18.790Z,61.31
2023-01-15T17:56:41.014Z,61.28
2023-01-15T18:02:03.694Z,61.70
2023-01-15T18:07:07.728Z,60.85
2023-01-15T18:12:12.729Z,61.21
2023-01-15T18:17:16.409Z,61.19
2023-01-15T18:22:20.064Z,60.98
2023-01-15T18:27:30.303Z,61.34
2023-01-15T18:32:33.685Z,61.01
2023-01-15T18:37:37.412Z,61.55
2023-01-15T18:42:59.812Z,61.73
2023-01-15T18:48:03.687Z,61.22
2023-01-15T18:53:08.670Z,61.72
2023-01-15T18:58:13.653Z,61.54
2023-01-15T19:03:16.950Z,61.52
2023-01-15T19:08:20.525Z,61.45
2023-01-15T19:13:25.412Z,62.02
2023-01-15T19:18:51.684Z,62.00
2023-01-15T19:23:55.089Z,61.63
2023-01-15T19:29:00.099Z,61.53
2023-01-15T19:34:32.211Z,61.50
2023-01-15T19:39:31.473Z,61.46
2023-01-15T19:44:54.174Z,61.66
2023-01-15T19:50:14.843Z,61.89
2023-01-15T19:55:19.487Z,61.94
2023-01-15T20:00:25.867Z,62.40
2023-01-15T20:05:31.971Z,61.82
2023-01-15T20:10:38.772Z,61.47
2023-01-15T20:15:45.687Z,61.59
2023-01-15T20:20:49.510Z,61.61
2023-01-15T20:25:53.793Z,61.56
2023-01-15T20:31:00.308Z,61.27
2023-01-15T20:36:04.543Z,61.03
2023-01-15T20:41:26.175Z,61.44
2023-01-15T20:46:31.139Z,61.93
2023-01-15T20:51:34.701Z,61.56
2023-01-15T20:56:38.345Z,61.56
2023-01-15T21:01:43.388Z,61.55
2023-01-15T21:06:47.093Z,61.21
2023-01-15T21:11:50.738Z,61.34
2023-01-15T21:16:55.729Z,61.21
2023-01-15T21:21:59.304Z,61.32
2023-01-15T21:27:02.868Z,61.71
2023-01-15T21:32:08.222Z,61.94
2023-01-15T21:37:11.833Z,61.50
2023-01-15T21:42:35.944Z,61.10
2023-01-15T21:47:41.866Z,61.83
2023-01-15T21:52:45.420Z,62.32
2023-01-15T21:57:49.588Z,61.65
2023-01-15T22:02:55.997Z,61.95
2023-01-15T22:07:59.645Z,62.34
2023-01-15T22:13:02.958Z,62.04
2023-01-15T22:18:08.034Z,61.71
2023-01-15T22:23:11.411Z,62.04
2023-01-15T22:28:14.992Z,61.88
2023-01-15T22:33:19.849Z,61.41
2023-01-15T22:38:23.216Z,61.45
2023-01-15T22:43:26.677Z,61.68
2023-01-15T22:48:31.626Z,61.65
2023-01-15T22:53:36.145Z,61.61
2023-01-15T22:58:42.821Z,61.58
2023-01-15T23:03:47.560Z,61.71
2023-01-15T23:08:51.147Z,62.13
2023-01-15T23:13:54.674Z,62.16
2023-01-15T23:18:59.707Z,61.59
2023-01-15T23:24:04.200Z,61.88
2023-01-15T23:29:08.068Z,61.98
2023-01-15T23:34:12.956Z,62.46
2023-01-15T23:39:16.547Z,62.49
2023-01-15T23:44:39.321Z,62.54
2023-01-15T23:49:44.323Z,62.29
2023-01-15T23:54:47.742Z,62.53
2023-01-15T23:59:51.369Z,63.16
